Time,TemperatureF,DewpointF,PressureIn,WindDirection,WindDirectionDegrees,WindSpeedMPH,WindSpeedGustMPH,Humidity,HourlyPrecipIn,Conditions,Clouds,dailyrainin,SoftwareType,DateUTC
2013-06-11 00:03:00,67.0,64.0,29.76,WNW,292,2.0,4.0,89,0.00,,,0.04,,2013-06-11 04:03:00,
2013-06-11 00:13:00,67.0,64.0,29.76,WNW,292,2.0,4.0,89,0.00,,,0.04,,2013-06-11 04:13:00,
2013-06-11 00:23:00,67.0,64.0,29.76,WNW,293,1.0,5.0,89,0.00,,,0.04,,2013-06-11 04:23:00,
2013-06-11 00:33:00,68.0,65.0,29.76,WNW,287,2.0,6.0,89,0.00,,,0.04,,2013-06-11 04:33:00,
2013-06-11 00:42:00,68.0,65.0,29.76,WNW,287,2.0,6.0,89,0.00,,,0.04,,2013-06-11 04:42:00,
2013-06-11 00:52:00,67.0,64.0,29.77,WNW,286,4.0,8.0,90,0.00,,,0.04,,2013-06-11 04:52:00,
2013-06-11 01:02:00,66.0,64.0,29.77,WNW,287,5.0,8.0,92,0.00,,,0.03,,2013-06-11 05:02:00,
2013-06-11 01:12:00,66.0,64.0,29.77,WNW,287,5.0,8.0,92,0.00,,,0.03,,2013-06-11 05:12:00,
2013-06-11 01:22:00,66.0,64.0,29.78,WNW,287,7.0,10.0,92,0.00,,,0.03,,2013-06-11 05:22:00,
2013-06-11 01:32:00,66.0,64.0,29.78,WNW,284,2.0,7.0,92,0.00,,,0.03,,2013-06-11 05:32:00,
2013-06-11 01:42:00,66.0,64.0,29.78,WNW,284,2.0,7.0,92,0.00,,,0.03,,2013-06-11 05:42:00,
2013-06-11 01:52:00,65.0,63.0,29.78,WNW,284,3.0,5.0,93,0.00,,,0.03,,2013-06-11 05:52:00,
2013-06-11 02:02:00,65.0,63.0,29.78,WNW,284,2.0,6.0,93,0.00,,,0.02,,2013-06-11 06:02:00,
2013-06-11 02:12:00,65.0,63.0,29.78,WNW,284,2.0,6.0,93,0.00,,,0.02,,2013-06-11 06:12:00,
2013-06-11 02:22:00,64.0,62.0,29.78,WNW,284,4.0,9.0,93,0.00,,,0.02,,2013-06-11 06:22:00,
2013-06-11 02:32:00,64.0,62.0,29.78,WNW,290,4.0,9.0,94,0.00,,,0.02,,2013-06-11 06:32:00,
2013-06-11 02:42:00,64.0,62.0,29.78,WNW,290,4.0,9.0,94,0.00,,,0.02,,2013-06-11 06:42:00,
2013-06-11 02:52:00,64.0,62.0,29.78,WNW,290,5.0,8.0,94,0.00,,,0.02,,2013-06-11 06:52:00,
2013-06-11 03:02:00,64.0,63.0,29.78,WNW,288,4.0,7.0,95,0.00,,,0.02,,2013-06-11 07:02:00,
2013-06-11 03:13:00,63.0,62.0,29.78,WNW,289,4.0,7.0,95,0.00,,,0.02,,2013-06-11 07:13:00,
2013-06-11 03:22:00,63.0,62.0,29.78,WNW,289,4.0,7.0,95,0.00,,,0.02,,2013-06-11 07:22:00,
2013-06-11 03:32:00,63.0,62.0,29.79,WNW,292,6.0,9.0,95,0.00,,,0.02,,2013-06-11 07:32:00,
2013-06-11 03:42:00,63.0,62.0,29.80,WNW,288,5.0,8.0,95,0.00,,,0.02,,2013-06-11 07:42:00,
2013-06-11 03:52:00,63.0,62.0,29.80,WNW,288,5.0,8.0,95,0.00,,,0.02,,2013-06-11 07:52:00,
2013-06-11 04:03:00,63.0,62.0,29.80,WNW,286,2.0,7.0,95,0.00,,,0.01,,2013-06-11 08:03:00,
2013-06-11 04:12:00,63.0,62.0,29.80,WNW,286,2.0,7.0,95,0.00,,,0.01,,2013-06-11 08:12:00,
2013-06-11 04:22:00,63.0,62.0,29.80,WNW,286,3.0,6.0,96,0.00,,,0.01,,2013-06-11 08:22:00,
2013-06-11 04:32:00,63.0,62.0,29.80,WNW,286,3.0,6.0,96,0.00,,,0.01,,2013-06-11 08:32:00,
2013-06-11 04:42:00,63.0,62.0,29.80,WNW,286,3.0,6.0,96,0.00,,,0.01,,2013-06-11 08:42:00,
2013-06-11 04:52:00,63.0,62.0,29.81,WNW,290,6.0,8.0,96,0.00,,,0.01,,2013-06-11 08:52:00,
2013-06-11 05:02:00,63.0,62.0,29.82,WNW,286,7.0,11.0,97,0.00,,,0.01,,2013-06-11 09:02:00,
2013-06-11 05:12:00,63.0,62.0,29.82,WNW,286,7.0,11.0,97,0.00,,,0.01,,2013-06-11 09:12:00,
2013-06-11 05:22:00,63.0,62.0,29.82,WNW,288,4.0,10.0,97,0.00,,,0.01,,2013-06-11 09:22:00,
2013-06-11 05:33:00,64.0,63.0,29.82,WNW,284,5.0,8.0,96,0.00,,,0.01,,2013-06-11 09:33:00,
2013-06-11 05:43:00,64.0,63.0,29.82,WNW,284,5.0,8.0,96,0.00,,,0.01,,2013-06-11 09:43:00,
2013-06-11 05:53:00,64.0,63.0,29.83,WNW,286,4.0,7.0,96,0.00,,,0.01,,2013-06-11 09:53:00,
2013-06-11 06:03:00,64.0,63.0,29.83,West,278,6.0,9.0,95,0.00,,,0.01,,2013-06-11 10:03:00,
2013-06-11 06:12:00,64.0,63.0,29.83,West,278,6.0,9.0,95,0.00,,,0.01,,2013-06-11 10:12:00,
2013-06-11 06:23:00,64.0,63.0,29.83,WNW,286,4.0,9.0,95,0.00,,,0.01,,2013-06-11 10:23:00,
2013-06-11 06:33:00,63.0,62.0,29.84,WNW,288,4.0,6.0,95,0.00,,,0.01,,2013-06-11 10:33:00,
2013-06-11 06:42:00,63.0,62.0,29.84,WNW,288,4.0,6.0,95,0.00,,,0.01,,2013-06-11 10:42:00,
2013-06-11 06:52:00,63.0,62.0,29.84,WNW,284,5.0,8.0,96,0.00,,,0.01,,2013-06-11 10:52:00,
2013-06-11 07:02:00,64.0,63.0,29.85,WNW,286,4.0,6.0,95,0.00,,,0.01,,2013-06-11 11:02:00,
2013-06-11 07:12:00,64.0,63.0,29.85,WNW,286,4.0,6.0,95,0.00,,,0.01,,2013-06-11 11:12:00,
2013-06-11 07:22:00,64.0,63.0,29.85,WNW,286,3.0,6.0,95,0.00,,,0.01,,2013-06-11 11:22:00,
2013-06-11 07:32:00,64.0,63.0,29.86,WNW,288,5.0,8.0,95,0.00,,,0.01,,2013-06-11 11:32:00,
2013-06-11 07:42:00,64.0,63.0,29.86,WNW,288,5.0,8.0,95,0.00,,,0.01,,2013-06-11 11:42:00,
2013-06-11 07:52:00,64.0,62.0,29.86,WNW,290,5.0,10.0,94,0.00,,,0.01,,2013-06-11 11:52:00,
2013-06-11 08:02:00,64.0,62.0,29.87,WNW,289,5.0,9.0,93,0.00,,,0.01,,2013-06-11 12:02:00,
2013-06-11 08:12:00,64.0,62.0,29.87,WNW,289,5.0,9.0,93,0.00,,,0.01,,2013-06-11 12:12:00,
2013-06-11 08:22:00,64.0,62.0,29.87,WNW,288,5.0,10.0,93,0.00,,,0.01,,2013-06-11 12:22:00,
2013-06-11 08:32:00,65.0,63.0,29.87,WNW,290,4.0,7.0,93,0.00,,,0.01,,2013-06-11 12:32:00,
2013-06-11 08:42:00,65.0,63.0,29.88,WNW,283,4.0,7.0,92,0.00,,,0.01,,2013-06-11 12:42:00,
2013-06-11 08:52:00,65.0,63.0,29.88,WNW,283,4.0,7.0,92,0.00,,,0.01,,2013-06-11 12:52:00,
2013-06-11 09:02:00,66.0,63.0,29.88,WNW,294,3.0,8.0,90,0.00,,,0.01,,2013-06-11 13:02:00,
2013-06-11 09:12:00,66.0,63.0,29.88,WNW,294,3.0,8.0,90,0.00,,,0.01,,2013-06-11 13:12:00,
2013-06-11 09:22:00,67.0,64.0,29.88,WNW,291,5.0,7.0,90,0.00,,,0.01,,2013-06-11 13:22:00,
2013-06-11 09:32:00,68.0,64.0,29.88,WNW,288,3.0,8.0,87,0.00,,,0.01,,2013-06-11 13:32:00,
2013-06-11 09:42:00,68.0,64.0,29.88,WNW,288,3.0,8.0,87,0.00,,,0.01,,2013-06-11 13:42:00,
2013-06-11 09:52:00,68.0,63.0,29.88,WNW,288,2.0,7.0,85,0.00,,,0.01,,2013-06-11 13:52:00,
2013-06-11 10:02:00,69.0,64.0,29.88,WNW,292,6.0,9.0,83,0.00,,,0.01,,2013-06-11 14:02:00,
2013-06-11 10:12:00,69.0,64.0,29.88,WNW,292,6.0,9.0,83,0.00,,,0.01,,2013-06-11 14:12:00,
2013-06-11 10:22:00,70.0,64.0,29.88,WNW,294,3.0,9.0,82,0.00,,,0.01,,2013-06-11 14:22:00,
2013-06-11 10:32:00,72.0,65.0,29.88,WNW,289,3.0,8.0,79,0.00,,,0.01,,2013-06-11 14:32:00,
2013-06-11 10:42:00,72.0,65.0,29.88,WNW,289,3.0,8.0,79,0.00,,,0.01,,2013-06-11 14:42:00,
2013-06-11 10:53:00,73.0,66.0,29.88,WNW,292,3.0,9.0,78,0.00,,,0.01,,2013-06-11 14:53:00,
2013-06-11 11:02:00,74.0,65.0,29.88,WNW,285,3.0,8.0,74,0.00,,,0.00,,2013-06-11 15:02:00,
2013-06-11 11:12:00,74.0,65.0,29.88,WNW,285,3.0,8.0,74,0.00,,,0.00,,2013-06-11 15:12:00,
2013-06-11 11:22:00,75.0,66.0,29.88,WNW,287,1.0,8.0,74,0.00,,,0.00,,2013-06-11 15:22:00,
2013-06-11 11:33:00,76.0,65.0,29.88,WNW,289,5.0,11.0,69,0.00,,,0.00,,2013-06-11 15:33:00,
2013-06-11 11:43:00,76.0,65.0,29.88,WNW,289,5.0,11.0,69,0.00,,,0.00,,2013-06-11 15:43:00,
2013-06-11 11:53:00,76.0,64.0,29.89,WNW,285,4.0,11.0,67,0.00,,,0.00,,2013-06-11 15:53:00,
2013-06-11 12:03:00,77.0,65.0,29.89,WNW,286,3.0,10.0,67,0.00,,,0.00,,2013-06-11 16:03:00,
2013-06-11 12:12:00,77.0,65.0,29.89,WNW,286,3.0,10.0,67,0.00,,,0.00,,2013-06-11 16:12:00,
2013-06-11 12:22:00,77.0,65.0,29.89,West,269,6.0,12.0,66,0.00,,,0.00,,2013-06-11 16:22:00,
2013-06-11 12:33:00,78.0,67.0,29.88,West,275,3.0,8.0,68,0.00,,,0.00,,2013-06-11 16:33:00,
2013-06-11 12:42:00,78.0,67.0,29.88,West,275,3.0,8.0,68,0.00,,,0.00,,2013-06-11 16:42:00,
2013-06-11 12:53:00,78.0,65.0,29.88,WNW,288,5.0,12.0,64,0.00,,,0.00,,2013-06-11 16:53:00,
2013-06-11 13:02:00,79.0,65.0,29.88,WNW,290,6.0,11.0,63,0.00,,,0.00,,2013-06-11 17:02:00,
2013-06-11 13:12:00,79.0,65.0,29.88,WNW,290,6.0,11.0,63,0.00,,,0.00,,2013-06-11 17:12:00,
2013-06-11 13:22:00,80.0,66.0,29.88,West,281,5.0,8.0,63,0.00,,,0.00,,2013-06-11 17:22:00,
2013-06-11 13:32:00,81.0,66.0,29.88,WNW,292,7.0,12.0,61,0.00,,,0.00,,2013-06-11 17:32:00,
2013-06-11 13:43:00,81.0,66.0,29.87,WNW,284,6.0,13.0,60,0.00,,,0.00,,2013-06-11 17:43:00,
2013-06-11 13:53:00,81.0,66.0,29.87,WNW,284,6.0,13.0,60,0.00,,,0.00,,2013-06-11 17:53:00,
2013-06-11 14:02:00,82.0,66.0,29.86,West,279,1.0,10.0,58,0.00,,,0.00,,2013-06-11 18:02:00,
2013-06-11 14:12:00,82.0,66.0,29.86,West,279,1.0,10.0,58,0.00,,,0.00,,2013-06-11 18:12:00,
2013-06-11 14:22:00,83.0,66.0,29.86,West,275,4.0,11.0,57,0.00,,,0.00,,2013-06-11 18:22:00,
2013-06-11 14:33:00,82.0,65.0,29.85,WNW,286,6.0,10.0,56,0.00,,,0.00,,2013-06-11 18:33:00,
2013-06-11 14:43:00,82.0,65.0,29.85,WNW,286,6.0,10.0,56,0.00,,,0.00,,2013-06-11 18:43:00,
2013-06-11 14:52:00,82.0,66.0,29.86,WNW,286,3.0,9.0,58,0.00,,,0.00,,2013-06-11 18:52:00,
2013-06-11 15:02:00,83.0,66.0,29.86,West,261,1.0,7.0,57,0.00,,,0.00,,2013-06-11 19:02:00,
2013-06-11 15:12:00,83.0,66.0,29.86,West,261,1.0,7.0,57,0.00,,,0.00,,2013-06-11 19:12:00,
2013-06-11 15:22:00,84.0,65.0,29.85,WNW,298,5.0,13.0,53,0.00,,,0.00,,2013-06-11 19:22:00,
2013-06-11 15:33:00,85.0,66.0,29.85,WSW,241,2.0,10.0,54,0.00,,,0.00,,2013-06-11 19:33:00,
2013-06-11 15:42:00,85.0,66.0,29.85,WSW,241,2.0,10.0,54,0.00,,,0.00,,2013-06-11 19:42:00,
2013-06-11 15:52:00,86.0,67.0,29.85,WNW,282,4.0,12.0,54,0.00,,,0.00,,2013-06-11 19:52:00,
2013-06-11 16:03:00,84.0,66.0,29.85,WSW,255,1.0,10.0,55,0.00,,,0.00,,2013-06-11 20:03:00,
2013-06-11 16:12:00,84.0,66.0,29.85,WSW,255,1.0,10.0,55,0.00,,,0.00,,2013-06-11 20:12:00,
2013-06-11 16:22:00,84.0,66.0,29.84,SW,216,4.0,11.0,55,0.00,,,0.00,,2013-06-11 20:22:00,
2013-06-11 16:32:00,84.0,66.0,29.83,SW,234,2.0,11.0,55,0.00,,,0.00,,2013-06-11 20:32:00,
2013-06-11 16:42:00,84.0,66.0,29.83,SW,234,2.0,11.0,55,0.00,,,0.00,,2013-06-11 20:42:00,
2013-06-11 16:52:00,84.0,65.0,29.83,SW,219,2.0,7.0,53,0.00,,,0.00,,2013-06-11 20:52:00,
2013-06-11 17:02:00,85.0,65.0,29.83,WNW,299,5.0,11.0,51,0.00,,,0.00,,2013-06-11 21:02:00,
2013-06-11 17:12:00,85.0,65.0,29.83,WNW,299,5.0,11.0,51,0.00,,,0.00,,2013-06-11 21:12:00,
2013-06-11 17:22:00,85.0,65.0,29.82,WNW,285,4.0,8.0,52,0.00,,,0.00,,2013-06-11 21:22:00,
2013-06-11 17:33:00,85.0,65.0,29.81,WSW,242,2.0,7.0,52,0.00,,,0.00,,2013-06-11 21:33:00,
2013-06-11 17:42:00,85.0,65.0,29.81,WSW,242,2.0,7.0,52,0.00,,,0.00,,2013-06-11 21:42:00,
2013-06-11 17:53:00,85.0,65.0,29.81,WSW,242,2.0,7.0,52,0.00,,,0.00,,2013-06-11 21:53:00,
2013-06-11 18:03:00,84.0,65.0,29.81,WSW,252,2.0,7.0,53,0.00,,,0.00,,2013-06-11 22:03:00,
2013-06-11 18:12:00,84.0,65.0,29.81,WSW,252,2.0,7.0,53,0.00,,,0.00,,2013-06-11 22:12:00,
2013-06-11 18:22:00,84.0,66.0,29.81,WNW,296,2.0,6.0,54,0.00,,,0.00,,2013-06-11 22:22:00,
2013-06-11 18:33:00,83.0,65.0,29.82,WNW,288,3.0,9.0,54,0.00,,,0.00,,2013-06-11 22:33:00,
2013-06-11 18:42:00,83.0,65.0,29.82,WNW,288,3.0,9.0,54,0.00,,,0.00,,2013-06-11 22:42:00,
2013-06-11 18:52:00,84.0,66.0,29.82,WNW,288,3.0,10.0,54,0.00,,,0.00,,2013-06-11 22:52:00,
2013-06-11 19:02:00,83.0,65.0,29.81,West,270,3.0,11.0,55,0.00,,,0.00,,2013-06-11 23:02:00,
2013-06-11 19:12:00,83.0,65.0,29.81,West,270,3.0,11.0,55,0.00,,,0.00,,2013-06-11 23:12:00,
2013-06-11 19:22:00,83.0,65.0,29.80,WNW,292,3.0,8.0,55,0.00,,,0.00,,2013-06-11 23:22:00,
2013-06-11 19:32:00,82.0,65.0,29.80,WNW,298,3.0,9.0,56,0.00,,,0.00,,2013-06-11 23:32:00,
2013-06-11 19:42:00,82.0,65.0,29.80,WNW,298,3.0,9.0,56,0.00,,,0.00,,2013-06-11 23:42:00,
2013-06-11 19:52:00,81.0,65.0,29.82,WNW,291,1.0,6.0,58,0.00,,,0.00,,2013-06-11 23:52:00,
2013-06-11 20:02:00,81.0,65.0,29.82,WSW,258,3.0,9.0,58,0.00,,,0.00,,2013-06-12 00:02:00,
2013-06-11 20:12:00,81.0,65.0,29.82,WSW,258,3.0,9.0,58,0.00,,,0.00,,2013-06-12 00:12:00,
2013-06-11 20:22:00,80.0,64.0,29.80,West,259,1.0,8.0,59,0.00,,,0.00,,2013-06-12 00:22:00,
2013-06-11 20:32:00,80.0,65.0,29.80,WNW,292,2.0,6.0,60,0.00,,,0.00,,2013-06-12 00:32:00,
2013-06-11 20:42:00,80.0,65.0,29.80,WNW,292,2.0,6.0,60,0.00,,,0.00,,2013-06-12 00:42:00,
2013-06-11 20:52:00,79.0,64.0,29.79,SW,226,1.0,5.0,61,0.00,,,0.00,,2013-06-12 00:52:00,
2013-06-11 21:02:00,79.0,64.0,29.78,West,269,2.0,6.0,60,0.00,,,0.00,,2013-06-12 01:02:00,
2013-06-11 21:12:00,79.0,64.0,29.78,West,269,2.0,6.0,60,0.00,,,0.00,,2013-06-12 01:12:00,
2013-06-11 21:22:00,78.0,63.0,29.80,WNW,288,1.0,6.0,61,0.00,,,0.00,,2013-06-12 01:22:00,
2013-06-11 21:32:00,77.0,63.0,29.81,WNW,284,2.0,8.0,63,0.00,,,0.00,,2013-06-12 01:32:00,
2013-06-11 21:42:00,77.0,63.0,29.81,WNW,284,2.0,8.0,63,0.00,,,0.00,,2013-06-12 01:42:00,
2013-06-11 21:52:00,76.0,64.0,29.82,WNW,297,1.0,7.0,67,0.00,,,0.00,,2013-06-12 01:52:00,
2013-06-11 22:02:00,76.0,65.0,29.82,WNW,302,1.0,6.0,68,0.00,,,0.00,,2013-06-12 02:02:00,
2013-06-11 22:12:00,76.0,65.0,29.82,WNW,302,1.0,6.0,68,0.00,,,0.00,,2013-06-12 02:12:00,
2013-06-11 22:22:00,75.0,65.0,29.82,NW,305,1.0,8.0,70,0.00,,,0.00,,2013-06-12 02:22:00,
2013-06-11 22:32:00,74.0,65.0,29.82,WNW,296,0.0,7.0,73,0.00,,,0.00,,2013-06-12 02:32:00,
2013-06-11 22:42:00,74.0,66.0,29.83,WNW,294,1.0,4.0,75,0.00,,,0.00,,2013-06-12 02:42:00,
2013-06-11 22:52:00,74.0,66.0,29.83,WNW,294,1.0,4.0,75,0.00,,,0.00,,2013-06-12 02:52:00,
2013-06-11 23:02:00,73.0,65.0,29.83,WNW,292,0.0,3.0,77,0.00,,,0.00,,2013-06-12 03:02:00,
2013-06-11 23:12:00,73.0,65.0,29.83,WNW,292,0.0,3.0,77,0.00,,,0.00,,2013-06-12 03:12:00,
2013-06-11 23:22:00,72.0,65.0,29.84,WNW,292,0.0,3.0,79,0.00,,,0.00,,2013-06-12 03:22:00,
2013-06-11 23:33:00,72.0,65.0,29.84,WNW,292,0.0,4.0,80,0.00,,,0.00,,2013-06-12 03:33:00,
2013-06-11 23:43:00,72.0,65.0,29.84,WNW,292,0.0,4.0,80,0.00,,,0.00,,2013-06-12 03:43:00,
2013-06-11 23:53:00,71.0,65.0,29.83,WNW,297,0.0,4.0,81,0.00,,,0.00,,2013-06-12 03:53:00,